sensor_id;sensor_type;location;lat;lon;timestamp;pressure;altitude;pressure_sealevel;temperature;humidity
7990;BME280;4040;42.848;23.034;2023-04-04T00:01:46;93478.22;;;8.75;100.00
7990;BME280;4040;42.848;23.034;2023-04-04T00:07:35;93467.91;;;8.90;100.00
7990;BME280;4040;42.848;23.034;2023-04-04T00:13:25;93476.47;;;8.85;100.00
7990;BME280;4040;42.848;23.034;2023-04-04T00:19:14;93467.59;;;8.72;100.00
7990;BME280;4040;42.848;23.034;2023-04-04T00:25:04;93469.84;;;8.73;100.00
7990;BME280;4040;42.848;23.034;2023-04-04T00:30:54;93463.75;;;8.73;100.00
7990;BME280;4040;42.848;23.034;2023-04-04T00:36:42;93464.25;;;8.52;100.00
7990;BME280;4040;42.848;23.034;2023-04-04T00:42:32;93456.72;;;8.63;100.00
7990;BME280;4040;42.848;23.034;2023-04-04T00:48:22;93452.25;;;8.72;100.00
7990;BME280;4040;42.848;23.034;2023-04-04T00:54:11;93430.19;;;8.65;100.00
7990;BME280;4040;42.848;23.034;2023-04-04T01:00:01;93442.75;;;8.84;100.00
7990;BME280;4040;42.848;23.034;2023-04-04T01:10:05;93425.81;;;8.87;100.00
7990;BME280;4040;42.848;23.034;2023-04-04T01:15:54;93430.53;;;8.83;100.00
7990;BME280;4040;42.848;23.034;2023-04-04T01:21:44;93443.97;;;8.95;100.00
7990;BME280;4040;42.848;23.034;2023-04-04T01:27:35;93451.63;;;8.97;100.00
7990;BME280;4040;42.848;23.034;2023-04-04T01:33:27;93462.03;;;8.79;100.00
7990;BME280;4040;42.848;23.034;2023-04-04T01:39:22;93430.66;;;8.92;100.00
7990;BME280;4040;42.848;23.034;2023-04-04T01:45:13;93448.91;;;9.13;100.00
7990;BME280;4040;42.848;23.034;2023-04-04T01:51:03;93444.09;;;8.92;100.00
7990;BME280;4040;42.848;23.034;2023-04-04T01:56:52;93448.13;;;8.84;100.00
7990;BME280;4040;42.848;23.034;2023-04-04T02:02:42;93422.78;;;8.85;100.00
7990;BME280;4040;42.848;23.034;2023-04-04T02:12:53;93399.50;;;8.66;100.00
7990;BME280;4040;42.848;23.034;2023-04-04T02:18:43;93391.78;;;8.68;100.00
7990;BME280;4040;42.848;23.034;2023-04-04T02:24:31;93404.38;;;8.71;100.00
7990;BME280;4040;42.848;23.034;2023-04-04T02:30:20;93420.88;;;8.69;100.00
7990;BME280;4040;42.848;23.034;2023-04-04T02:36:10;93427.53;;;8.93;100.00
7990;BME280;4040;42.848;23.034;2023-04-04T02:42:00;93436.03;;;8.92;100.00
7990;BME280;4040;42.848;23.034;2023-04-04T02:47:49;93403.38;;;8.93;100.00
7990;BME280;4040;42.848;23.034;2023-04-04T02:53:39;93440.00;;;9.16;100.00
7990;BME280;4040;42.848;23.034;2023-04-04T02:59:27;93441.31;;;9.24;100.00
7990;BME280;4040;42.848;23.034;2023-04-04T03:05:16;93438.63;;;9.24;100.00
7990;BME280;4040;42.848;23.034;2023-04-04T03:15:28;93451.28;;;9.23;100.00
7990;BME280;4040;42.848;23.034;2023-04-04T03:21:17;93452.34;;;9.13;100.00
7990;BME280;4040;42.848;23.034;2023-04-04T03:27:06;93445.78;;;9.14;100.00
7990;BME280;4040;42.848;23.034;2023-04-04T03:32:57;93444.41;;;9.22;100.00
7990;BME280;4040;42.848;23.034;2023-04-04T03:38:46;93418.38;;;9.07;100.00
7990;BME280;4040;42.848;23.034;2023-04-04T03:44:35;93440.31;;;9.18;100.00
7990;BME280;4040;42.848;23.034;2023-04-04T03:50:25;93437.88;;;9.23;100.00
7990;BME280;4040;42.848;23.034;2023-04-04T03:56:13;93445.97;;;9.36;100.00
7990;BME280;4040;42.848;23.034;2023-04-04T04:02:03;93445.22;;;9.35;100.00
7990;BME280;4040;42.848;23.034;2023-04-04T04:07:53;93444.69;;;9.40;100.00
7990;BME280;4040;42.848;23.034;2023-04-04T04:18:04;93449.38;;;9.24;100.00
7990;BME280;4040;42.848;23.034;2023-04-04T04:24:15;93464.50;;;9.18;100.00
7990;BME280;4040;42.848;23.034;2023-04-04T04:30:05;93440.88;;;8.97;100.00
7990;BME280;4040;42.848;23.034;2023-04-04T04:35:57;93466.22;;;8.96;100.00
7990;BME280;4040;42.848;23.034;2023-04-04T04:41:48;93438.72;;;8.92;100.00
7990;BME280;4040;42.848;23.034;2023-04-04T04:47:36;93487.28;;;8.97;100.00
7990;BME280;4040;42.848;23.034;2023-04-04T04:53:25;93489.69;;;9.08;100.00
7990;BME280;4040;42.848;23.034;2023-04-04T04:59:15;93487.56;;;8.71;100.00
7990;BME280;4040;42.848;23.034;2023-04-04T05:05:04;93506.84;;;8.66;100.00
7990;BME280;4040;42.848;23.034;2023-04-04T05:10:53;93510.00;;;8.29;100.00
7990;BME280;4040;42.848;23.034;2023-04-04T05:20:51;93528.63;;;7.81;100.00
7990;BME280;4040;42.848;23.034;2023-04-04T05:26:41;93537.84;;;7.60;100.00
7990;BME280;4040;42.848;23.034;2023-04-04T05:32:30;93551.03;;;7.32;100.00
7990;BME280;4040;42.848;23.034;2023-04-04T05:38:20;93568.16;;;7.15;100.00
7990;BME280;4040;42.848;23.034;2023-04-04T05:44:08;93528.59;;;6.57;100.00
7990;BME280;4040;42.848;23.034;2023-04-04T05:49:57;93584.31;;;6.62;100.00
7990;BME280;4040;42.848;23.034;2023-04-04T05:55:50;93602.97;;;6.39;100.00
7990;BME280;4040;42.848;23.034;2023-04-04T06:01:39;93612.88;;;6.16;100.00
7990;BME280;4040;42.848;23.034;2023-04-04T06:07:28;93619.78;;;5.80;100.00
7990;BME280;4040;42.848;23.034;2023-04-04T06:13:18;93634.66;;;5.77;100.00
7990;BME280;4040;42.848;23.034;2023-04-04T06:23:28;93654.44;;;5.46;100.00
7990;BME280;4040;42.848;23.034;2023-04-04T06:29:19;93662.88;;;5.41;100.00
7990;BME280;4040;42.848;23.034;2023-04-04T06:35:08;93656.03;;;5.40;100.00
7990;BME280;4040;42.848;23.034;2023-04-04T06:40:57;93669.06;;;5.35;100.00
7990;BME280;4040;42.848;23.034;2023-04-04T06:46:47;93683.28;;;5.62;100.00
7990;BME280;4040;42.848;23.034;2023-04-04T06:52:36;93701.78;;;5.42;100.00
7990;BME280;4040;42.848;23.034;2023-04-04T06:58:25;93713.34;;;5.25;100.00
7990;BME280;4040;42.848;23.034;2023-04-04T07:04:17;93714.69;;;5.47;100.00
7990;BME280;4040;42.848;23.034;2023-04-04T07:10:10;93676.28;;;4.90;100.00
7990;BME280;4040;42.848;23.034;2023-04-04T07:15:59;93727.53;;;5.63;100.00
7990;BME280;4040;42.848;23.034;2023-04-04T07:26:11;93754.84;;;5.84;100.00
7990;BME280;4040;42.848;23.034;2023-04-04T07:32:00;93743.03;;;5.78;100.00
7990;BME280;4040;42.848;23.034;2023-04-04T07:37:51;93745.59;;;5.92;100.00
7990;BME280;4040;42.848;23.034;2023-04-04T07:43:42;93794.06;;;5.94;100.00
7990;BME280;4040;42.848;23.034;2023-04-04T07:49:33;93796.75;;;5.91;100.00
7990;BME280;4040;42.848;23.034;2023-04-04T07:55:22;93814.97;;;6.03;100.00
7990;BME280;4040;42.848;23.034;2023-04-04T08:01:13;93825.53;;;5.69;100.00
7990;BME280;4040;42.848;23.034;2023-04-04T08:07:02;93829.09;;;6.03;100.00
7990;BME280;4040;42.848;23.034;2023-04-04T08:12:51;93816.72;;;5.79;100.00
7990;BME280;4040;42.848;23.034;2023-04-04T08:18:41;93830.88;;;6.17;100.00
7990;BME280;4040;42.848;23.034;2023-04-04T08:28:52;93849.28;;;6.08;100.00
7990;BME280;4040;42.848;23.034;2023-04-04T08:34:43;93857.16;;;5.74;100.00
7990;BME280;4040;42.848;23.034;2023-04-04T08:40:31;93852.41;;;5.99;100.00
7990;BME280;4040;42.848;23.034;2023-04-04T08:46:20;93862.44;;;6.69;100.00
7990;BME280;4040;42.848;23.034;2023-04-04T08:52:12;93868.44;;;7.10;100.00
7990;BME280;4040;42.848;23.034;2023-04-04T08:58:02;93868.28;;;7.50;100.00
7990;BME280;4040;42.848;23.034;2023-04-04T09:03:52;93862.09;;;7.57;100.00
7990;BME280;4040;42.848;23.034;2023-04-04T09:09:43;93873.81;;;7.10;100.00
7990;BME280;4040;42.848;23.034;2023-04-04T09:15:34;93884.41;;;6.87;100.00
7990;BME280;4040;42.848;23.034;2023-04-04T09:21:24;93869.81;;;6.21;100.00
7990;BME280;4040;42.848;23.034;2023-04-04T09:31:37;93902.09;;;6.78;100.00
7990;BME280;4040;42.848;23.034;2023-04-04T09:37:26;93914.00;;;6.29;100.00
7990;BME280;4040;42.848;23.034;2023-04-04T09:43:15;93898.34;;;6.72;100.00
7990;BME280;4040;42.848;23.034;2023-04-04T09:49:08;93867.19;;;6.51;100.00
7990;BME280;4040;42.848;23.034;2023-04-04T09:54:59;93888.59;;;6.51;100.00
7990;BME280;4040;42.848;23.034;2023-04-04T10:00:48;93900.66;;;6.70;100.00
7990;BME280;4040;42.848;23.034;2023-04-04T10:06:42;93911.38;;;6.66;100.00
7990;BME280;4040;42.848;23.034;2023-04-04T10:12:30;93904.94;;;6.97;100.00
7990;BME280;4040;42.848;23.034;2023-04-04T10:18:21;93912.06;;;6.74;100.00
7990;BME280;4040;42.848;23.034;2023-04-04T10:24:12;93910.94;;;7.08;100.00
7990;BME280;4040;42.848;23.034;2023-04-04T10:34:27;93925.94;;;6.65;100.00
7990;BME280;4040;42.848;23.034;2023-04-04T10:40:21;93936.81;;;6.44;100.00
7990;BME280;4040;42.848;23.034;2023-04-04T10:46:15;93945.38;;;6.25;100.00
7990;BME280;4040;42.848;23.034;2023-04-04T10:52:05;93960.16;;;5.89;100.00
7990;BME280;4040;42.848;23.034;2023-04-04T10:57:56;93953.97;;;5.99;100.00
7990;BME280;4040;42.848;23.034;2023-04-04T11:04:15;93969.34;;;5.85;100.00
7990;BME280;4040;42.848;23.034;2023-04-04T11:10:12;93965.53;;;5.82;100.00
7990;BME280;4040;42.848;23.034;2023-04-04T11:16:04;93970.94;;;5.65;100.00
7990;BME280;4040;42.848;23.034;2023-04-04T11:21:53;93984.44;;;5.33;100.00
7990;BME280;4040;42.848;23.034;2023-04-04T11:27:45;93982.09;;;5.49;100.00
7990;BME280;4040;42.848;23.034;2023-04-04T11:33:53;93981.78;;;5.30;100.00
7990;BME280;4040;42.848;23.034;2023-04-04T11:39:46;93977.66;;;5.11;100.00
7990;BME280;4040;42.848;23.034;2023-04-04T11:45:36;93983.69;;;5.33;100.00
7990;BME280;4040;42.848;23.034;2023-04-04T11:51:32;93981.34;;;5.45;100.00
7990;BME280;4040;42.848;23.034;2023-04-04T11:57:20;93999.34;;;5.27;100.00
7990;BME280;4040;42.848;23.034;2023-04-04T12:03:10;94001.66;;;5.15;100.00
7990;BME280;4040;42.848;23.034;2023-04-04T12:09:01;93990.19;;;5.32;100.00
7990;BME280;4040;42.848;23.034;2023-04-04T12:14:52;94009.25;;;5.30;100.00
7990;BME280;4040;42.848;23.034;2023-04-04T12:20:46;94003.91;;;5.34;100.00
7990;BME280;4040;42.848;23.034;2023-04-04T12:26:40;94009.94;;;5.48;100.00
7990;BME280;4040;42.848;23.034;2023-04-04T12:36:51;94005.34;;;5.45;100.00
7990;BME280;4040;42.848;23.034;2023-04-04T12:42:42;93995.59;;;5.00;100.00
7990;BME280;4040;42.848;23.034;2023-04-04T12:48:30;94008.59;;;4.84;100.00
7990;BME280;4040;42.848;23.034;2023-04-04T12:54:26;94009.25;;;5.27;100.00
7990;BME280;4040;42.848;23.034;2023-04-04T13:00:18;94027.22;;;5.05;100.00
7990;BME280;4040;42.848;23.034;2023-04-04T13:06:11;94018.50;;;4.88;100.00
7990;BME280;4040;42.848;23.034;2023-04-04T13:12:01;94018.09;;;5.06;100.00
7990;BME280;4040;42.848;23.034;2023-04-04T13:17:51;94039.03;;;5.04;100.00
7990;BME280;4040;42.848;23.034;2023-04-04T13:23:40;94038.34;;;4.59;100.00
7990;BME280;4040;42.848;23.034;2023-04-04T13:29:29;94048.22;;;4.41;100.00
7990;BME280;4040;42.848;23.034;2023-04-04T13:39:41;94055.06;;;4.28;100.00
7990;BME280;4040;42.848;23.034;2023-04-04T13:45:31;94071.78;;;4.14;100.00
7990;BME280;4040;42.848;23.034;2023-04-04T13:51:20;94081.38;;;4.29;100.00
7990;BME280;4040;42.848;23.034;2023-04-04T13:57:12;94093.09;;;4.11;100.00
7990;BME280;4040;42.848;23.034;2023-04-04T14:03:02;94072.09;;;3.71;100.00
7990;BME280;4040;42.848;23.034;2023-04-04T14:08:50;94109.75;;;3.80;100.00
7990;BME280;4040;42.848;23.034;2023-04-04T14:14:41;94115.88;;;3.91;100.00
7990;BME280;4040;42.848;23.034;2023-04-04T14:20:29;94120.47;;;3.94;100.00
7990;BME280;4040;42.848;23.034;2023-04-04T14:26:18;94123.34;;;3.54;100.00
7990;BME280;4040;42.848;23.034;2023-04-04T14:32:08;94099.03;;;3.62;100.00
7990;BME280;4040;42.848;23.034;2023-04-04T14:42:19;94118.84;;;3.68;100.00
7990;BME280;4040;42.848;23.034;2023-04-04T14:48:09;94137.84;;;3.67;100.00
7990;BME280;4040;42.848;23.034;2023-04-04T14:53:58;94151.47;;;3.55;100.00
7990;BME280;4040;42.848;23.034;2023-04-04T14:59:57;94154.72;;;3.99;100.00
7990;BME280;4040;42.848;23.034;2023-04-04T15:06:08;94149.00;;;3.97;100.00
7990;BME280;4040;42.848;23.034;2023-04-04T15:11:57;94147.75;;;3.70;100.00
7990;BME280;4040;42.848;23.034;2023-04-04T15:17:46;94156.97;;;3.90;100.00
7990;BME280;4040;42.848;23.034;2023-04-04T15:23:36;94174.56;;;4.05;100.00
7990;BME280;4040;42.848;23.034;2023-04-04T15:29:25;94179.16;;;4.15;100.00
7990;BME280;4040;42.848;23.034;2023-04-04T15:35:18;94162.31;;;3.86;100.00
7990;BME280;4040;42.848;23.034;2023-04-04T15:45:11;94176.31;;;3.12;100.00
7990;BME280;4040;42.848;23.034;2023-04-04T15:51:01;94198.41;;;3.23;100.00
7990;BME280;4040;42.848;23.034;2023-04-04T15:56:50;94197.66;;;3.19;100.00
7990;BME280;4040;42.848;23.034;2023-04-04T16:02:40;94219.28;;;3.17;100.00
7990;BME280;4040;42.848;23.034;2023-04-04T16:08:28;94219.41;;;2.88;100.00
7990;BME280;4040;42.848;23.034;2023-04-04T16:14:17;94161.72;;;2.52;100.00
7990;BME280;4040;42.848;23.034;2023-04-04T16:20:09;94189.78;;;2.46;100.00
7990;BME280;4040;42.848;23.034;2023-04-04T16:25:58;94257.22;;;2.71;100.00
7990;BME280;4040;42.848;23.034;2023-04-04T16:31:47;94258.38;;;2.37;100.00
7990;BME280;4040;42.848;23.034;2023-04-04T16:37:37;94261.97;;;2.22;100.00
7990;BME280;4040;42.848;23.034;2023-04-04T16:47:38;94254.25;;;2.10;100.00
7990;BME280;4040;42.848;23.034;2023-04-04T16:53:28;94242.34;;;1.97;100.00
7990;BME280;4040;42.848;23.034;2023-04-04T16:59:17;94280.22;;;2.24;100.00
7990;BME280;4040;42.848;23.034;2023-04-04T17:05:06;94282.44;;;2.18;100.00
7990;BME280;4040;42.848;23.034;2023-04-04T17:10:57;94286.28;;;2.24;100.00
7990;BME280;4040;42.848;23.034;2023-04-04T17:16:45;94299.13;;;2.19;100.00
7990;BME280;4040;42.848;23.034;2023-04-04T17:22:35;94300.47;;;2.06;100.00
7990;BME280;4040;42.848;23.034;2023-04-04T17:28:26;94298.09;;;1.97;100.00
7990;BME280;4040;42.848;23.034;2023-04-04T17:34:14;94301.94;;;2.03;100.00
7990;BME280;4040;42.848;23.034;2023-04-04T17:40:03;94317.09;;;1.99;100.00
7990;BME280;4040;42.848;23.034;2023-04-04T17:50:16;94330.25;;;1.92;100.00
7990;BME280;4040;42.848;23.034;2023-04-04T17:56:05;94329.78;;;1.87;100.00
7990;BME280;4040;42.848;23.034;2023-04-04T18:01:54;94349.03;;;1.80;100.00
7990;BME280;4040;42.848;23.034;2023-04-04T18:07:44;94319.75;;;1.73;100.00
7990;BME280;4040;42.848;23.034;2023-04-04T18:13:32;94344.47;;;1.77;100.00
7990;BME280;4040;42.848;23.034;2023-04-04T18:25:30;94382.75;;;1.76;100.00
7990;BME280;4040;42.848;23.034;2023-04-04T18:31:19;94388.06;;;1.76;100.00
7990;BME280;4040;42.848;23.034;2023-04-04T18:37:08;94377.91;;;1.59;100.00
7990;BME280;4040;42.848;23.034;2023-04-04T18:43:00;94389.38;;;1.63;100.00
7990;BME280;4040;42.848;23.034;2023-04-04T18:53:12;94363.06;;;1.32;100.00
7990;BME280;4040;42.848;23.034;2023-04-04T18:59:02;94380.97;;;1.61;100.00
7990;BME280;4040;42.848;23.034;2023-04-04T19:04:52;94399.38;;;1.73;100.00
7990;BME280;4040;42.848;23.034;2023-04-04T19:10:43;94408.94;;;1.55;100.00
7990;BME280;4040;42.848;23.034;2023-04-04T19:16:34;94409.09;;;1.66;100.00
7990;BME280;4040;42.848;23.034;2023-04-04T19:22:24;94418.13;;;1.61;100.00
7990;BME280;4040;42.848;23.034;2023-04-04T19:28:13;94424.16;;;1.58;100.00
7990;BME280;4040;42.848;23.034;2023-04-04T19:34:04;94415.72;;;1.53;100.00
7990;BME280;4040;42.848;23.034;2023-04-04T19:39:55;94419.16;;;1.53;100.00
7990;BME280;4040;42.848;23.034;2023-04-04T19:45:47;94418.84;;;1.58;100.00
7990;BME280;4040;42.848;23.034;2023-04-04T19:56:02;94425.44;;;1.45;100.00
7990;BME280;4040;42.848;23.034;2023-04-04T20:01:54;94426.84;;;1.39;100.00
7990;BME280;4040;42.848;23.034;2023-04-04T20:07:43;94425.72;;;1.40;100.00
7990;BME280;4040;42.848;23.034;2023-04-04T20:13:34;94432.63;;;1.45;100.00
7990;BME280;4040;42.848;23.034;2023-04-04T20:19:25;94429.03;;;1.56;100.00
7990;BME280;4040;42.848;23.034;2023-04-04T20:25:38;94420.25;;;1.52;100.00
7990;BME280;4040;42.848;23.034;2023-04-04T20:31:33;94423.13;;;1.44;100.00
7990;BME280;4040;42.848;23.034;2023-04-04T20:37:23;94428.66;;;1.35;100.00
7990;BME280;4040;42.848;23.034;2023-04-04T20:43:12;94434.22;;;1.27;100.00
7990;BME280;4040;42.848;23.034;2023-04-04T20:49:03;94430.75;;;1.45;100.00
7990;BME280;4040;42.848;23.034;2023-04-04T20:59:28;94438.03;;;1.29;100.00
7990;BME280;4040;42.848;23.034;2023-04-04T21:05:27;94442.91;;;1.27;100.00
7990;BME280;4040;42.848;23.034;2023-04-04T21:11:22;94446.22;;;1.21;100.00
7990;BME280;4040;42.848;23.034;2023-04-04T21:17:12;94435.84;;;0.93;100.00
7990;BME280;4040;42.848;23.034;2023-04-04T21:23:04;94442.81;;;1.01;100.00
7990;BME280;4040;42.848;23.034;2023-04-04T21:28:54;94451.19;;;1.03;100.00
7990;BME280;4040;42.848;23.034;2023-04-04T21:34:44;94445.88;;;1.03;100.00
7990;BME280;4040;42.848;23.034;2023-04-04T21:40:34;94422.84;;;1.07;100.00
7990;BME280;4040;42.848;23.034;2023-04-04T21:46:25;94450.47;;;1.25;100.00
7990;BME280;4040;42.848;23.034;2023-04-04T21:52:14;94425.97;;;1.13;100.00
7990;BME280;4040;42.848;23.034;2023-04-04T22:08:31;94446.66;;;0.85;100.00
7990;BME280;4040;42.848;23.034;2023-04-04T22:14:20;94461.94;;;0.91;100.00
7990;BME280;4040;42.848;23.034;2023-04-04T22:20:10;94465.41;;;0.95;100.00
7990;BME280;4040;42.848;23.034;2023-04-04T22:26:04;94457.59;;;0.83;100.00
7990;BME280;4040;42.848;23.034;2023-04-04T22:31:53;94458.41;;;0.87;100.00
7990;BME280;4040;42.848;23.034;2023-04-04T22:37:42;94470.50;;;0.85;100.00
7990;BME280;4040;42.848;23.034;2023-04-04T22:43:33;94459.94;;;0.88;100.00
7990;BME280;4040;42.848;23.034;2023-04-04T22:49:22;94466.69;;;1.01;100.00
7990;BME280;4040;42.848;23.034;2023-04-04T22:55:12;94453.91;;;0.88;100.00
7990;BME280;4040;42.848;23.034;2023-04-04T23:01:02;94466.81;;;0.89;100.00
7990;BME280;4040;42.848;23.034;2023-04-04T23:06:50;94472.13;;;0.89;100.00
7990;BME280;4040;42.848;23.034;2023-04-04T23:12:39;94442.16;;;0.70;100.00
7990;BME280;4040;42.848;23.034;2023-04-04T23:18:29;94461.38;;;1.01;100.00
7990;BME280;4040;42.848;23.034;2023-04-04T23:24:18;94458.56;;;0.94;100.00
7990;BME280;4040;42.848;23.034;2023-04-04T23:30:08;94461.28;;;0.98;100.00
7990;BME280;4040;42.848;23.034;2023-04-04T23:35:58;94431.72;;;0.77;100.00
7990;BME280;4040;42.848;23.034;2023-04-04T23:41:46;94461.22;;;1.13;100.00
7990;BME280;4040;42.848;23.034;2023-04-04T23:47:35;94463.16;;;0.97;100.00
7990;BME280;4040;42.848;23.034;2023-04-04T23:53:26;94472.13;;;0.89;100.00
7990;BME280;4040;42.848;23.034;2023-04-04T23:59:15;94463.59;;;0.80;100.00
